createdAt,value
2017-11-27T00:01:08.436Z,4.03
2017-11-27T00:03:36.100Z,4.90
2017-11-27T00:06:03.857Z,4.77
2017-11-27T00:08:31.512Z,4.77
2017-11-27T00:10:59.235Z,5.50
2017-11-27T00:13:26.942Z,5.63
2017-11-27T00:15:54.662Z,4.90
2017-11-27T00:18:22.349Z,5.50
2017-11-27T00:20:50.049Z,5.23
2017-11-27T00:23:18.496Z,5.20
2017-11-27T00:25:46.199Z,5.30
2017-11-27T00:28:13.900Z,5.03
2017-11-27T00:30:41.632Z,5.20
2017-11-27T00:33:09.304Z,5.40
2017-11-27T00:35:37.020Z,6.43
2017-11-27T00:38:05.448Z,5.00
2017-11-27T00:40:33.183Z,5.80
2017-11-27T00:43:00.828Z,5.37
2017-11-27T00:45:29.296Z,6.20
2017-11-27T00:47:57.713Z,5.70
2017-11-27T00:50:25.412Z,5.20
2017-11-27T00:52:53.081Z,5.37
2017-11-27T00:55:20.772Z,5.20
2017-11-27T00:57:48.518Z,5.13
2017-11-27T01:00:17.016Z,5.30
2017-11-27T01:02:44.744Z,4.83
2017-11-27T01:05:13.172Z,4.80
2017-11-27T01:07:40.867Z,4.93
2017-11-27T01:10:08.526Z,5.40
2017-11-27T01:12:36.238Z,5.67
2017-11-27T01:15:03.893Z,5.00
2017-11-27T01:17:31.597Z,6.03
2017-11-27T01:19:59.249Z,5.53
2017-11-27T01:22:26.953Z,5.63
2017-11-27T01:24:55.378Z,7.20
2017-11-27T01:27:23.080Z,5.23
2017-11-27T01:29:51.504Z,6.33
2017-11-27T01:32:19.218Z,5.60
2017-11-27T01:34:47.660Z,7.00
2017-11-27T01:37:15.405Z,5.50
2017-11-27T01:39:43.120Z,6.13
2017-11-27T01:42:11.613Z,5.40
2017-11-27T01:44:39.301Z,6.47
2017-11-27T01:47:07.028Z,6.93
2017-11-27T01:49:35.481Z,4.93
2017-11-27T01:52:03.183Z,5.10
2017-11-27T01:54:30.881Z,5.67
2017-11-27T01:56:58.619Z,5.83
2017-11-27T01:59:26.284Z,7.03
2017-11-27T02:01:53.994Z,5.50
2017-11-27T02:04:22.451Z,5.37
2017-11-27T02:06:50.110Z,5.60
2017-11-27T02:09:17.865Z,5.40
2017-11-27T02:11:45.513Z,4.80
2017-11-27T02:14:13.208Z,6.00
2017-11-27T02:16:41.630Z,5.30
2017-11-27T02:19:09.357Z,5.07
2017-11-27T02:21:37.805Z,3.73
2017-11-27T02:24:05.540Z,5.17
2017-11-27T02:26:33.190Z,4.00
2017-11-27T02:29:00.891Z,4.97
2017-11-27T02:31:28.549Z,4.37
2017-11-27T02:33:56.253Z,5.07
2017-11-27T02:36:23.949Z,4.40
2017-11-27T02:38:51.688Z,4.40
2017-11-27T02:41:19.372Z,4.47
2017-11-27T02:43:47.113Z,5.00
2017-11-27T02:46:14.784Z,5.30
2017-11-27T02:48:42.976Z,4.90
2017-11-27T02:51:10.632Z,5.33
2017-11-27T02:53:38.353Z,4.77
2017-11-27T02:56:06.056Z,4.83
2017-11-27T02:58:33.754Z,4.73
2017-11-27T03:01:01.498Z,4.60
2017-11-27T03:03:29.923Z,4.77
2017-11-27T03:05:57.655Z,4.43
2017-11-27T03:08:25.337Z,5.00
2017-11-27T03:10:53.075Z,5.17
2017-11-27T03:13:20.748Z,4.67
2017-11-27T03:15:48.476Z,4.63
2017-11-27T03:18:16.917Z,5.33
2017-11-27T03:20:44.631Z,5.43
2017-11-27T03:23:12.296Z,5.60
2017-11-27T03:25:40.000Z,5.33
2017-11-27T03:28:07.655Z,4.70
2017-11-27T03:30:35.353Z,5.03
2017-11-27T03:33:03.826Z,5.23
2017-11-27T03:35:32.348Z,5.30
2017-11-27T03:38:00.006Z,5.60
2017-11-27T03:40:27.721Z,5.70
2017-11-27T03:42:56.149Z,4.80
2017-11-27T03:45:23.868Z,4.30
2017-11-27T03:47:52.285Z,5.37
2017-11-27T03:50:19.989Z,5.87
2017-11-27T03:52:47.635Z,5.47
2017-11-27T03:55:15.281Z,5.43
2017-11-27T03:57:42.989Z,4.90
2017-11-27T04:00:11.408Z,4.63
2017-11-27T04:02:39.112Z,4.80
2017-11-27T04:05:07.542Z,4.30
2017-11-27T04:07:35.237Z,4.60
2017-11-27T04:10:02.897Z,4.70
2017-11-27T04:12:30.636Z,4.23
2017-11-27T04:14:58.329Z,3.80
2017-11-27T04:17:26.889Z,4.23
2017-11-27T04:19:54.589Z,4.00
2017-11-27T04:22:23.053Z,3.30
2017-11-27T04:24:51.486Z,3.70
2017-11-27T04:27:19.200Z,3.57
2017-11-27T04:29:47.616Z,3.50
2017-11-27T04:32:15.304Z,3.30
2017-11-27T04:34:42.991Z,3.20
2017-11-27T04:37:11.512Z,3.27
2017-11-27T04:39:39.181Z,3.50
2017-11-27T04:42:06.896Z,3.37
2017-11-27T04:44:35.325Z,2.60
2017-11-27T04:47:03.080Z,3.40
2017-11-27T04:49:30.764Z,2.73
2017-11-27T04:51:58.522Z,4.20
2017-11-27T04:54:26.200Z,3.70
2017-11-27T04:56:54.622Z,3.47
2017-11-27T04:59:22.347Z,3.13
2017-11-27T05:01:50.808Z,3.43
2017-11-27T05:04:18.508Z,3.73
2017-11-27T05:06:46.215Z,3.67
2017-11-27T05:09:14.007Z,3.43
2017-11-27T05:11:42.456Z,3.70
2017-11-27T05:14:10.422Z,3.83
2017-11-27T05:16:38.088Z,3.70
2017-11-27T05:19:05.836Z,3.40
2017-11-27T05:21:33.536Z,3.73
2017-11-27T05:24:01.996Z,5.37
2017-11-27T05:26:29.670Z,5.10
2017-11-27T05:28:58.166Z,3.63
2017-11-27T05:31:25.821Z,4.93
2017-11-27T05:33:53.518Z,4.87
2017-11-27T05:36:21.172Z,4.10
2017-11-27T05:38:48.864Z,3.77
2017-11-27T05:41:16.524Z,4.50
2017-11-27T05:43:44.229Z,4.10
2017-11-27T05:46:11.881Z,4.10
2017-11-27T05:48:39.578Z,3.93
2017-11-27T05:51:07.237Z,4.30
2017-11-27T05:53:34.928Z,3.90
2017-11-27T05:56:05.052Z,4.70
2017-11-27T05:58:33.518Z,4.30
2017-11-27T06:01:01.194Z,4.20
2017-11-27T06:03:29.654Z,4.93
2017-11-27T06:05:57.321Z,4.80
2017-11-27T06:08:25.009Z,4.63
2017-11-27T06:10:52.684Z,5.00
2017-11-27T06:13:20.397Z,3.87
2017-11-27T06:15:48.048Z,4.47
2017-11-27T06:18:15.757Z,4.73
2017-11-27T06:20:43.427Z,4.80
2017-11-27T06:23:11.124Z,4.40
2017-11-27T06:25:38.803Z,3.57
2017-11-27T06:28:07.272Z,3.90
2017-11-27T06:30:35.716Z,4.20
2017-11-27T06:33:03.428Z,6.37
2017-11-27T06:35:31.843Z,4.53
2017-11-27T06:37:59.532Z,4.73
2017-11-27T06:40:27.191Z,3.73
2017-11-27T06:42:54.888Z,3.77
2017-11-27T06:45:22.553Z,3.50
2017-11-27T06:47:50.248Z,3.50
2017-11-27T06:50:17.906Z,4.70
2017-11-27T06:52:45.600Z,4.30
2017-11-27T06:55:13.314Z,4.53
2017-11-27T06:57:41.025Z,4.00
2017-11-27T07:00:09.474Z,4.67
2017-11-27T07:02:37.173Z,3.30
2017-11-27T07:05:05.595Z,3.83
2017-11-27T07:07:33.338Z,5.40
2017-11-27T07:10:00.997Z,4.40
2017-11-27T07:12:28.652Z,4.30
2017-11-27T07:14:56.397Z,5.40
2017-11-27T07:17:24.060Z,4.67
2017-11-27T07:19:51.766Z,5.10
2017-11-27T07:22:19.416Z,5.27
2017-11-27T07:24:47.122Z,5.60
2017-11-27T07:27:15.669Z,4.73
2017-11-27T07:29:43.368Z,5.20
2017-11-27T07:32:11.795Z,4.70
2017-11-27T07:34:39.496Z,4.40
2017-11-27T07:37:07.193Z,4.37
2017-11-27T07:39:40.663Z,5.63
2017-11-27T07:42:09.089Z,4.90
2017-11-27T07:44:36.807Z,4.57
2017-11-27T07:47:04.485Z,4.77
2017-11-27T07:49:32.205Z,5.97
2017-11-27T07:51:59.860Z,5.33
2017-11-27T07:54:27.590Z,5.47
2017-11-27T07:56:55.247Z,5.20
2017-11-27T07:59:22.951Z,5.00
2017-11-27T08:01:51.385Z,5.20
2017-11-27T08:04:19.089Z,4.60
2017-11-27T08:06:47.525Z,3.80
2017-11-27T08:09:15.225Z,4.20
2017-11-27T08:11:43.646Z,4.47
2017-11-27T08:14:11.343Z,5.37
2017-11-27T08:16:39.001Z,3.57
2017-11-27T08:19:06.712Z,4.93
2017-11-27T08:21:34.368Z,4.20
2017-11-27T08:24:02.096Z,4.30
2017-11-27T08:26:29.749Z,4.20
2017-11-27T08:28:57.449Z,4.03
2017-11-27T08:31:25.104Z,4.10
2017-11-27T08:33:52.804Z,4.00
2017-11-27T08:36:20.464Z,3.90
2017-11-27T08:38:48.156Z,4.70
2017-11-27T08:41:16.580Z,3.77
2017-11-27T08:43:44.325Z,4.10
2017-11-27T08:46:12.024Z,3.77
2017-11-27T08:48:39.772Z,3.50
2017-11-27T08:51:07.483Z,3.13
2017-11-27T08:53:35.197Z,3.70
2017-11-27T08:56:02.886Z,3.70
2017-11-27T08:58:30.604Z,3.30
2017-11-27T09:00:58.321Z,4.03
2017-11-27T09:03:26.789Z,2.90
2017-11-27T09:05:54.452Z,4.67
2017-11-27T09:08:22.933Z,3.27
2017-11-27T09:10:51.400Z,3.23
2017-11-27T09:13:19.136Z,3.27
2017-11-27T09:15:46.815Z,3.60
2017-11-27T09:18:14.560Z,3.23
2017-11-27T09:20:42.326Z,3.67
2017-11-27T09:23:10.049Z,3.40
2017-11-27T09:25:37.746Z,3.60
2017-11-27T09:28:05.445Z,4.27
2017-11-27T09:30:33.984Z,4.00
2017-11-27T09:33:01.637Z,3.40
2017-11-27T09:35:29.364Z,3.23
2017-11-27T09:37:57.033Z,4.10
2017-11-27T09:40:24.758Z,4.10
2017-11-27T09:42:53.229Z,4.10
2017-11-27T09:45:21.716Z,4.53
2017-11-27T09:47:50.152Z,3.97
2017-11-27T09:50:17.887Z,4.47
2017-11-27T09:52:45.592Z,4.77
2017-11-27T09:55:13.324Z,4.83
2017-11-27T09:57:41.024Z,4.50
2017-11-27T10:00:09.582Z,5.00
2017-11-27T10:02:37.264Z,5.20
2017-11-27T10:05:05.776Z,5.43
2017-11-27T10:07:33.441Z,4.80
2017-11-27T10:10:01.161Z,5.60
2017-11-27T10:12:28.841Z,5.40
2017-11-27T10:14:57.332Z,5.10
2017-11-27T10:17:25.079Z,4.67
2017-11-27T10:19:53.593Z,5.13
2017-11-27T10:22:21.312Z,5.50
2017-11-27T10:24:49.780Z,5.30
2017-11-27T10:27:18.365Z,5.97
2017-11-27T10:29:46.856Z,5.43
2017-11-27T10:32:15.316Z,6.07
2017-11-27T10:34:43.045Z,5.27
2017-11-27T10:37:10.728Z,5.53
2017-11-27T10:39:38.460Z,4.97
2017-11-27T10:42:06.144Z,5.70
2017-11-27T10:44:33.858Z,5.03
2017-11-27T10:47:01.540Z,5.40
2017-11-27T10:49:30.012Z,6.30
2017-11-27T10:51:57.705Z,5.90
2017-11-27T10:54:25.413Z,5.23
2017-11-27T10:56:53.090Z,5.40
2017-11-27T10:59:20.811Z,5.73
2017-11-27T11:01:49.242Z,5.33
2017-11-27T11:04:17.729Z,5.17
2017-11-27T11:06:45.420Z,5.30
2017-11-27T11:09:13.909Z,5.70
2017-11-27T11:11:42.384Z,5.27
2017-11-27T11:14:10.881Z,4.23
2017-11-27T11:16:38.540Z,4.77
2017-11-27T11:19:06.289Z,5.57
2017-11-27T11:21:33.985Z,5.00
2017-11-27T11:24:01.744Z,4.60
2017-11-27T11:26:29.413Z,5.07
2017-11-27T11:28:57.140Z,5.63
2017-11-27T11:31:24.812Z,4.77
2017-11-27T11:33:52.561Z,4.70
2017-11-27T11:36:20.256Z,3.90
2017-11-27T11:38:47.958Z,4.03
2017-11-27T11:41:16.397Z,4.07
2017-11-27T11:43:44.093Z,4.57
2017-11-27T11:46:12.511Z,4.33
2017-11-27T11:48:40.250Z,7.20
2017-11-27T11:51:07.977Z,18.23
2017-11-27T11:53:35.681Z,12.47
2017-11-27T11:56:03.459Z,12.10
2017-11-27T11:58:31.200Z,26.10
2017-11-27T12:00:58.977Z,22.67
2017-11-27T12:03:26.659Z,4.10
2017-11-27T12:05:55.178Z,3.43
2017-11-27T12:08:22.874Z,4.27
2017-11-27T12:10:50.592Z,3.47
2017-11-27T12:13:19.064Z,3.13
2017-11-27T12:15:47.185Z,2.67
2017-11-27T12:18:14.889Z,3.47
2017-11-27T12:20:42.640Z,4.73
2017-11-27T12:23:10.305Z,3.40
2017-11-27T12:25:38.044Z,4.00
2017-11-27T12:28:05.736Z,3.53
2017-11-27T12:30:34.234Z,5.17
2017-11-27T12:33:02.678Z,2.83
2017-11-27T12:35:30.473Z,3.13
2017-11-27T12:37:58.952Z,3.50
2017-11-27T12:40:27.563Z,3.03
2017-11-27T12:42:56.484Z,4.20
2017-11-27T12:45:24.244Z,3.47
2017-11-27T12:47:51.957Z,2.90
2017-11-27T12:50:19.720Z,3.03
2017-11-27T12:52:47.437Z,3.43
2017-11-27T12:55:15.188Z,3.70
2017-11-27T12:57:42.870Z,4.10
2017-11-27T13:00:11.425Z,4.07
2017-11-27T13:02:39.081Z,5.70
2017-11-27T13:05:06.848Z,7.57
2017-11-27T13:07:34.542Z,5.00
2017-11-27T13:10:03.021Z,18.93
2017-11-27T13:12:31.497Z,12.20
2017-11-27T13:15:00.010Z,17.53
2017-11-27T13:17:27.686Z,12.70
2017-11-27T13:19:55.392Z,5.37
2017-11-27T13:22:23.821Z,3.60
2017-11-27T13:24:51.517Z,5.13
2017-11-27T13:27:19.170Z,4.23
2017-11-27T13:29:46.868Z,4.00
2017-11-27T13:32:14.536Z,6.03
2017-11-27T13:34:42.240Z,9.23
2017-11-27T13:37:09.956Z,7.40
2017-11-27T13:39:37.665Z,7.97
2017-11-27T13:42:05.329Z,5.37
2017-11-27T13:47:07.105Z,11.17
2017-11-27T13:49:35.636Z,15.27
2017-11-27T13:52:03.329Z,4.03
2017-11-27T13:54:31.046Z,3.00
2017-11-27T13:56:58.718Z,3.40
2017-11-27T13:59:26.428Z,3.77
2017-11-27T14:01:54.861Z,3.10
2017-11-27T14:04:22.577Z,3.53
2017-11-27T14:06:50.997Z,2.87
2017-11-27T14:09:18.741Z,3.10
2017-11-27T14:11:46.408Z,2.97
2017-11-27T14:14:14.060Z,3.30
2017-11-27T14:16:41.784Z,3.10
2017-11-27T14:19:10.205Z,3.30
2017-11-27T14:21:38.307Z,3.17
2017-11-27T14:24:06.105Z,4.80
2017-11-27T14:26:33.837Z,3.10
2017-11-27T14:29:01.516Z,3.10
2017-11-27T14:31:29.995Z,3.33
2017-11-27T14:33:58.719Z,3.27
2017-11-27T14:36:26.423Z,3.10
2017-11-27T14:38:54.145Z,3.60
2017-11-27T14:41:22.064Z,4.67
2017-11-27T14:43:51.784Z,4.90
2017-11-27T14:46:19.578Z,4.93
2017-11-27T14:48:47.321Z,7.57
2017-11-27T14:51:15.093Z,5.80
2017-11-27T14:53:42.850Z,11.57
2017-11-27T14:56:10.626Z,13.57
2017-11-27T14:58:38.367Z,6.70
2017-11-27T15:01:06.143Z,3.20
2017-11-27T15:03:33.870Z,3.77
2017-11-27T15:06:02.441Z,7.13
2017-11-27T15:17:04.610Z,3.47
2017-11-27T15:19:32.364Z,3.53
2017-11-27T15:22:00.994Z,7.53
2017-11-27T15:24:28.695Z,3.70
2017-11-27T15:26:56.444Z,4.50
2017-11-27T15:29:24.157Z,3.50
2017-11-27T15:31:51.906Z,6.37
2017-11-27T15:34:19.652Z,10.27
2017-11-27T15:36:47.410Z,3.10
2017-11-27T15:39:15.120Z,3.60
2017-11-27T15:41:43.649Z,4.30
2017-11-27T15:44:11.356Z,4.83
2017-11-27T15:46:39.880Z,2.87
2017-11-27T15:49:07.671Z,2.20
2017-11-27T15:51:35.425Z,3.37
2017-11-27T15:54:03.137Z,5.57
2017-11-27T15:56:30.917Z,5.13
2017-11-27T15:58:58.669Z,10.70
2017-11-27T16:01:26.473Z,2.67
2017-11-27T16:03:54.200Z,3.13
2017-11-27T16:06:22.004Z,2.93
2017-11-27T16:08:49.723Z,4.07
2017-11-27T16:11:17.504Z,10.17
2017-11-27T16:13:45.238Z,3.97
2017-11-27T16:16:12.985Z,3.83
2017-11-27T16:18:41.466Z,3.80
2017-11-27T16:21:09.229Z,10.80
2017-11-27T16:23:37.709Z,4.80
2017-11-27T16:26:05.479Z,4.10
2017-11-27T16:28:33.202Z,3.20
2017-11-27T16:31:00.956Z,3.10
2017-11-27T16:33:28.678Z,4.33
2017-11-27T16:35:56.432Z,3.97
2017-11-27T16:38:24.439Z,3.03
2017-11-27T16:40:52.185Z,3.27
2017-11-27T16:43:19.924Z,3.30
2017-11-27T16:45:47.673Z,4.00
2017-11-27T16:48:15.389Z,2.60
2017-11-27T16:50:43.181Z,3.63
2017-11-27T16:53:11.671Z,4.60
2017-11-27T16:55:39.412Z,3.90
2017-11-27T16:58:07.886Z,4.20
2017-11-27T17:00:36.420Z,4.30
2017-11-27T17:03:04.129Z,4.20
2017-11-27T17:05:32.655Z,5.10
2017-11-27T17:08:00.391Z,6.57
2017-11-27T17:10:28.129Z,3.30
2017-11-27T17:12:56.945Z,3.47
2017-11-27T17:15:24.734Z,4.20
2017-11-27T17:17:52.506Z,3.47
2017-11-27T17:20:20.263Z,2.30
2017-11-27T17:22:47.981Z,2.80
2017-11-27T17:25:15.780Z,2.90
2017-11-27T17:27:43.520Z,3.80
2017-11-27T17:30:11.369Z,2.50
2017-11-27T17:32:39.102Z,2.50
2017-11-27T17:35:06.935Z,10.13
2017-11-27T17:37:34.729Z,1.87
2017-11-27T17:40:03.235Z,2.00
2017-11-27T17:42:31.045Z,3.20
2017-11-27T17:44:58.805Z,2.13
2017-11-27T17:47:26.647Z,1.83
2017-11-27T17:52:46.865Z,2.10
2017-11-27T17:55:14.593Z,1.53
2017-11-27T17:57:42.295Z,1.90
2017-11-27T18:00:10.093Z,1.20
2017-11-27T18:02:38.593Z,1.70
2017-11-27T18:05:06.599Z,1.97
2017-11-27T18:07:35.252Z,4.20
2017-11-27T18:10:03.113Z,1.97
2017-11-27T18:12:30.916Z,2.65
2017-11-27T18:14:58.677Z,1.70
2017-11-27T18:17:26.504Z,2.13
2017-11-27T18:19:54.237Z,2.63
2017-11-27T18:22:22.712Z,1.67
2017-11-27T18:24:51.461Z,1.50
2017-11-27T18:27:19.209Z,1.70
2017-11-27T18:29:46.921Z,1.83
2017-11-27T18:32:15.541Z,1.43
2017-11-27T18:34:43.291Z,2.00
2017-11-27T18:37:11.014Z,1.77
2017-11-27T18:39:39.587Z,2.17
2017-11-27T18:42:08.075Z,2.10
2017-11-27T18:44:36.830Z,2.10
2017-11-27T18:47:04.561Z,2.00
2017-11-27T18:49:32.281Z,2.20
2017-11-27T18:52:00.892Z,1.67
2017-11-27T18:54:28.653Z,3.03
2017-11-27T18:56:56.417Z,2.17
2017-11-27T18:59:24.286Z,2.53
2017-11-27T19:01:51.999Z,2.20
2017-11-27T19:04:20.612Z,1.67
2017-11-27T19:06:48.388Z,2.10
2017-11-27T19:09:16.105Z,2.20
2017-11-27T19:11:44.877Z,2.40
2017-11-27T19:14:12.596Z,1.80
2017-11-27T19:16:40.308Z,2.70
2017-11-27T19:19:08.925Z,2.93
2017-11-27T19:21:36.714Z,2.13
2017-11-27T19:24:04.497Z,4.60
2017-11-27T19:26:32.342Z,2.97
2017-11-27T19:29:00.063Z,2.10
2017-11-27T19:31:27.789Z,4.70
2017-11-27T19:33:55.628Z,3.10
2017-11-27T19:36:23.386Z,2.50
2017-11-27T19:38:53.991Z,2.40
2017-11-27T19:41:23.192Z,2.90
2017-11-27T19:43:53.287Z,2.00
2017-11-27T19:46:24.568Z,3.10
2017-11-27T19:48:54.470Z,1.97
2017-11-27T19:51:24.868Z,2.17
2017-11-27T19:53:55.642Z,3.33
2017-11-27T19:56:25.487Z,2.60
2017-11-27T19:58:56.231Z,2.60
2017-11-27T20:01:27.024Z,2.10
2017-11-27T20:03:56.877Z,1.97
2017-11-27T20:06:27.045Z,1.80
2017-11-27T20:08:56.690Z,2.80
2017-11-27T20:11:26.790Z,2.10
2017-11-27T20:13:56.804Z,2.13
2017-11-27T20:16:24.743Z,2.37
2017-11-27T20:18:52.637Z,2.17
2017-11-27T20:21:20.361Z,2.10
2017-11-27T20:23:48.082Z,3.23
2017-11-27T20:26:16.677Z,2.40
2017-11-27T20:28:44.388Z,1.93
2017-11-27T20:31:12.101Z,1.77
2017-11-27T20:33:40.112Z,1.60
2017-11-27T20:36:07.839Z,1.50
2017-11-27T20:38:35.590Z,1.70
2017-11-27T20:41:03.527Z,1.37
2017-11-27T20:43:32.032Z,1.50
2017-11-27T20:45:59.749Z,1.83
2017-11-27T20:48:27.717Z,2.17
2017-11-27T20:50:55.590Z,1.50
2017-11-27T20:53:25.030Z,1.67
2017-11-27T20:55:52.833Z,1.50
2017-11-27T20:58:20.607Z,2.00
2017-11-27T21:00:48.529Z,1.27
2017-11-27T21:03:16.742Z,1.87
2017-11-27T21:05:44.475Z,1.40
2017-11-27T21:08:12.403Z,1.67
2017-11-27T21:10:40.140Z,1.53
2017-11-27T21:13:08.640Z,1.40
2017-11-27T21:15:36.468Z,1.50
2017-11-27T21:18:04.157Z,1.30
2017-11-27T21:20:32.641Z,1.20
2017-11-27T21:23:00.468Z,1.03
2017-11-27T21:25:28.195Z,1.37
2017-11-27T21:27:55.913Z,1.23
2017-11-27T21:30:24.513Z,1.33
2017-11-27T21:32:52.216Z,1.43
2017-11-27T21:35:19.937Z,1.40
2017-11-27T21:37:47.768Z,1.17
2017-11-27T21:40:16.257Z,1.20
2017-11-27T21:42:44.771Z,1.10
2017-11-27T21:45:12.553Z,1.10
2017-11-27T21:47:40.360Z,1.40
2017-11-27T21:50:08.921Z,1.90
2017-11-27T21:52:36.757Z,2.23
2017-11-27T21:55:04.536Z,3.27
2017-11-27T21:57:32.317Z,2.47
2017-11-27T22:00:00.191Z,2.53
2017-11-27T22:02:28.609Z,2.60
2017-11-27T22:04:56.877Z,1.97
2017-11-27T22:07:24.696Z,2.67
2017-11-27T22:09:53.187Z,1.90
2017-11-27T22:12:20.928Z,2.30
2017-11-27T22:14:48.737Z,2.73
2017-11-27T22:17:16.441Z,2.00
2017-11-27T22:19:44.223Z,1.60
2017-11-27T22:22:12.985Z,1.60
2017-11-27T22:24:40.701Z,1.70
2017-11-27T22:27:08.421Z,1.83
2017-11-27T22:29:41.070Z,2.50
2017-11-27T22:32:08.983Z,1.27
2017-11-27T22:34:36.707Z,1.40
2017-11-27T22:37:04.419Z,1.83
2017-11-27T22:39:32.148Z,1.80
2017-11-27T22:42:00.733Z,1.47
2017-11-27T22:44:29.216Z,1.70
2017-11-27T22:46:57.760Z,1.70
2017-11-27T22:49:25.432Z,1.70
2017-11-27T22:51:53.213Z,1.53
2017-11-27T22:54:21.710Z,1.47
2017-11-27T22:56:49.472Z,1.30
2017-11-27T22:59:17.216Z,0.97
2017-11-27T23:01:45.640Z,1.30
2017-11-27T23:04:14.189Z,1.30
2017-11-27T23:06:41.872Z,1.77
2017-11-27T23:09:09.683Z,1.13
2017-11-27T23:11:37.337Z,1.20
2017-11-27T23:14:05.108Z,1.00
2017-11-27T23:16:33.563Z,1.43
2017-11-27T23:19:01.329Z,1.10
2017-11-27T23:21:29.110Z,1.00
2017-11-27T23:23:57.660Z,1.00
2017-11-27T23:26:25.356Z,1.10
2017-11-27T23:28:53.849Z,1.00
2017-11-27T23:31:21.597Z,1.13
2017-11-27T23:33:50.088Z,1.07
2017-11-27T23:36:17.809Z,0.90
2017-11-27T23:38:45.529Z,1.20
2017-11-27T23:41:13.289Z,0.90
2017-11-27T23:43:41.001Z,1.10
2017-11-27T23:46:08.756Z,1.50
2017-11-27T23:48:36.451Z,1.13
2017-11-27T23:51:04.920Z,1.13
2017-11-27T23:53:33.458Z,1.10
2017-11-27T23:56:01.223Z,1.27
2017-11-27T23:58:28.965Z,1.00
